Pont-y-pwl, United Kingdom
Current Conditions -  °F | °C
As of 8:50 AM on Monday 22 Dec 2014 (Local Time) from EGFF Reporting Station
Overcast Overcast  
Wind Chill: 11°   Ceiling: 1400
Heat Index: 11°   Visibility: 6mi
Dew Point: 10°   Wind: 22mph
Humidity: 94%   Direction: 250°WSW
Pressure: 30.09"   Gusts: NA
Location:  51.7°N, 3.04°W
Report Text: EGFF 220850Z AUTO 25019KT 9999 OVC014 11/10 Q1019
Loading
Personal Weather Stations






























Interactive Weather Map New forecast layout! Learn more

10-Day Weather Forecast

Advertisements
Track Severe Weather on mobile